ACA660 CYUL-CYHZ
Flight info
| Callsign | ACA660 |
|---|---|
| Flight time | 1h 12m |
| Altitude | 37000 |
| Route | SUXET DCT NOVUN DCT ESRAM DCT RABIK Q951 ANTOV DCT EBONY FUNDY5 |
| Aircraft | B38M/M-SDE1FGHILORVWXY/HB1 |
Departure
| Time | 2026-05-04 05:19 |
|---|---|
| Airport | Montreal / Pierre Elliott Trudeau International Airport (CYUL) |
Arrival
| Time | 2026-05-04 06:31 |
|---|---|
| Airport | Halifax / Stanfield International Airport (CYHZ) |
| Time | Latitude | Longitude | Altitude | Speed | Heading |
|---|---|---|---|---|---|
| 2026-05-04 04:54 | 45.45887 | -73.74393 | 118 ft | 0 kts | 205° |
| 2026-05-04 05:06 | 45.45899 | -73.74385 | 114 ft | 5 kts | 204° |
| 2026-05-04 05:07 | 45.45930 | -73.74365 | 116 ft | 5 kts | 205° |
| 2026-05-04 05:07 | 45.45956 | -73.74348 | 116 ft | 2 kts | 191° |
| 2026-05-04 05:07 | 45.45970 | -73.74349 | 117 ft | 2 kts | 155° |
| 2026-05-04 05:09 | 45.46000 | -73.74429 | 117 ft | 0 kts | 68° |
| 2026-05-04 05:10 | 45.46003 | -73.74421 | 118 ft | 2 kts | 68° |
| 2026-05-04 05:10 | 45.46022 | -73.74368 | 118 ft | 11 kts | 54° |
| 2026-05-04 05:10 | 45.46088 | -73.74267 | 118 ft | 16 kts | 46° |
| 2026-05-04 05:10 | 45.46137 | -73.74121 | 118 ft | 18 kts | 81° |
| 2026-05-04 05:11 | 45.46207 | -73.73970 | 118 ft | 20 kts | 42° |
| 2026-05-04 05:11 | 45.46312 | -73.73832 | 117 ft | 22 kts | 42° |
| 2026-05-04 05:11 | 45.46429 | -73.73677 | 117 ft | 24 kts | 43° |
| 2026-05-04 05:11 | 45.46558 | -73.73509 | 117 ft | 26 kts | 42° |
| 2026-05-04 05:12 | 45.46698 | -73.73327 | 116 ft | 28 kts | 43° |
| 2026-05-04 05:12 | 45.46708 | -73.73312 | 118 ft | 28 kts | 42° |
| 2026-05-04 05:13 | 45.46820 | -73.73167 | 118 ft | 30 kts | 42° |
| 2026-05-04 05:13 | 45.46977 | -73.72963 | 117 ft | 31 kts | 43° |
| 2026-05-04 05:13 | 45.47139 | -73.72749 | 116 ft | 33 kts | 43° |
| 2026-05-04 05:13 | 45.47312 | -73.72522 | 115 ft | 34 kts | 42° |
| 2026-05-04 05:14 | 45.47494 | -73.72285 | 118 ft | 36 kts | 43° |
| 2026-05-04 05:14 | 45.47681 | -73.72038 | 119 ft | 35 kts | 42° |
| 2026-05-04 05:14 | 45.47793 | -73.71891 | 116 ft | 16 kts | 43° |
| 2026-05-04 05:14 | 45.47836 | -73.71759 | 116 ft | 17 kts | 125° |
| 2026-05-04 05:15 | 45.47791 | -73.71695 | 117 ft | 0 kts | 149° |
| 2026-05-04 05:17 | 45.47778 | -73.71685 | 115 ft | 7 kts | 153° |
| 2026-05-04 05:17 | 45.47696 | -73.71645 | 114 ft | 16 kts | 167° |
| 2026-05-04 05:17 | 45.47647 | -73.71674 | 116 ft | 0 kts | 224° |
| 2026-05-04 05:19 | 45.47477 | -73.71897 | 116 ft | 75 kts | 223° |
| 2026-05-04 05:19 | 45.46903 | -73.72653 | 120 ft | 146 kts | 223° |
| 2026-05-04 05:19 | 45.46101 | -73.73736 | 596 ft | 168 kts | 224° |
| 2026-05-04 05:19 | 45.45273 | -73.74850 | 1711 ft | 158 kts | 229° |
| 2026-05-04 05:20 | 45.44435 | -73.75983 | 2559 ft | 176 kts | 229° |
| 2026-05-04 05:20 | 45.43511 | -73.77225 | 3296 ft | 197 kts | 223° |
| 2026-05-04 05:20 | 45.42187 | -73.77933 | 4118 ft | 218 kts | 187° |
| 2026-05-04 05:20 | 45.40624 | -73.77502 | 4973 ft | 243 kts | 161° |
| 2026-05-04 05:21 | 45.39037 | -73.76409 | 5795 ft | 262 kts | 156° |
| 2026-05-04 05:21 | 45.37385 | -73.75181 | 6677 ft | 277 kts | 149° |
| 2026-05-04 05:21 | 45.36110 | -73.73095 | 7704 ft | 289 kts | 116° |
| 2026-05-04 05:21 | 45.35724 | -73.70247 | 8638 ft | 300 kts | 89° |
| 2026-05-04 05:22 | 45.35659 | -73.67228 | 9551 ft | 311 kts | 94° |
| 2026-05-04 05:22 | 45.35484 | -73.64097 | 10345 ft | 324 kts | 95° |
| 2026-05-04 05:22 | 45.35278 | -73.60866 | 11032 ft | 338 kts | 95° |
| 2026-05-04 05:22 | 45.35044 | -73.57459 | 11807 ft | 349 kts | 95° |
| 2026-05-04 05:23 | 45.34801 | -73.54015 | 12668 ft | 356 kts | 95° |
| 2026-05-04 05:23 | 45.34549 | -73.50482 | 13619 ft | 360 kts | 95° |
| 2026-05-04 05:23 | 45.34297 | -73.46949 | 14435 ft | 364 kts | 95° |
| 2026-05-04 05:23 | 45.34035 | -73.43322 | 15231 ft | 369 kts | 95° |
| 2026-05-04 05:24 | 45.33774 | -73.39700 | 16022 ft | 373 kts | 95° |
| 2026-05-04 05:24 | 45.33505 | -73.35986 | 16811 ft | 377 kts | 95° |
| 2026-05-04 05:24 | 45.33232 | -73.32249 | 17578 ft | 382 kts | 95° |
| 2026-05-04 05:24 | 45.32959 | -73.28517 | 18288 ft | 386 kts | 95° |
| 2026-05-04 05:25 | 45.32678 | -73.24689 | 18943 ft | 390 kts | 95° |
| 2026-05-04 05:25 | 45.32394 | -73.20837 | 19613 ft | 393 kts | 95° |
| 2026-05-04 05:25 | 45.32106 | -73.16948 | 20257 ft | 397 kts | 95° |
| 2026-05-04 05:25 | 45.31813 | -73.13019 | 20892 ft | 400 kts | 94° |
| 2026-05-04 05:26 | 45.31521 | -73.09107 | 21536 ft | 403 kts | 94° |
| 2026-05-04 05:26 | 45.31220 | -73.05111 | 22149 ft | 407 kts | 94° |
| 2026-05-04 05:26 | 45.30919 | -73.01121 | 22744 ft | 411 kts | 94° |
| 2026-05-04 05:26 | 45.30612 | -72.97065 | 23335 ft | 414 kts | 94° |
| 2026-05-04 05:27 | 45.30297 | -72.92943 | 23834 ft | 418 kts | 94° |
| 2026-05-04 05:28 | 45.29785 | -72.63697 | 27203 ft | 433 kts | 85° |
| 2026-05-04 05:29 | 45.30001 | -72.59399 | 27645 ft | 436 kts | 83° |
| 2026-05-04 05:29 | 45.30251 | -72.55074 | 28086 ft | 439 kts | 83° |
| 2026-05-04 05:29 | 45.30490 | -72.50786 | 28507 ft | 441 kts | 83° |
| 2026-05-04 05:29 | 45.30730 | -72.46406 | 28934 ft | 444 kts | 84° |
| 2026-05-04 05:31 | 45.32386 | -72.15180 | 31382 ft | 461 kts | 85° |
| 2026-05-04 05:31 | 45.32622 | -72.10605 | 31699 ft | 463 kts | 85° |
| 2026-05-04 05:32 | 45.32854 | -72.06067 | 32004 ft | 466 kts | 85° |
| 2026-05-04 05:32 | 45.33087 | -72.01457 | 32298 ft | 468 kts | 85° |
| 2026-05-04 05:32 | 45.33320 | -71.96828 | 32608 ft | 470 kts | 85° |
| 2026-05-04 05:33 | 45.33785 | -71.87581 | 33430 ft | 468 kts | 84° |
| 2026-05-04 05:33 | 45.34280 | -71.83042 | 33837 ft | 467 kts | 80° |
| 2026-05-04 05:33 | 45.34813 | -71.78462 | 34138 ft | 467 kts | 81° |
| 2026-05-04 05:33 | 45.35321 | -71.73880 | 34431 ft | 467 kts | 81° |
| 2026-05-04 05:34 | 45.35810 | -71.69352 | 34709 ft | 468 kts | 81° |
| 2026-05-04 05:34 | 45.36301 | -71.64755 | 34815 ft | 469 kts | 81° |
| 2026-05-04 05:34 | 45.36784 | -71.60203 | 34801 ft | 467 kts | 81° |
| 2026-05-04 05:35 | 45.37750 | -71.51043 | 34813 ft | 467 kts | 82° |
| 2026-05-04 05:35 | 45.38706 | -71.41910 | 34814 ft | 468 kts | 82° |
| 2026-05-04 05:36 | 45.39654 | -71.32784 | 34818 ft | 468 kts | 82° |
| 2026-05-04 05:36 | 45.40600 | -71.23597 | 34833 ft | 468 kts | 82° |
| 2026-05-04 05:37 | 45.41531 | -71.14484 | 34823 ft | 467 kts | 82° |
| 2026-05-04 05:37 | 45.42457 | -71.05331 | 34826 ft | 467 kts | 83° |
| 2026-05-04 05:38 | 45.41973 | -70.96249 | 34837 ft | 465 kts | 99° |
| 2026-05-04 05:38 | 45.41478 | -70.91701 | 34800 ft | 466 kts | 100° |
| 2026-05-04 05:38 | 45.40422 | -70.82581 | 34827 ft | 466 kts | 101° |
| 2026-05-04 05:39 | 45.38787 | -70.68971 | 34818 ft | 466 kts | 101° |
| 2026-05-04 05:40 | 45.37144 | -70.55444 | 34813 ft | 463 kts | 101° |
| 2026-05-04 05:40 | 45.36039 | -70.46429 | 34805 ft | 463 kts | 101° |
| 2026-05-04 05:41 | 45.34923 | -70.37387 | 34806 ft | 463 kts | 101° |
| 2026-05-04 05:41 | 45.33806 | -70.28397 | 34798 ft | 463 kts | 101° |
| 2026-05-04 05:42 | 45.32678 | -70.19380 | 34796 ft | 463 kts | 101° |
| 2026-05-04 05:42 | 45.31541 | -70.10348 | 34795 ft | 463 kts | 101° |
| 2026-05-04 05:43 | 45.30402 | -70.01368 | 34796 ft | 463 kts | 101° |
| 2026-05-04 05:45 | 45.25762 | -69.65353 | 34781 ft | 463 kts | 102° |
| 2026-05-04 05:47 | 45.21217 | -69.30955 | 34767 ft | 464 kts | 102° |
| 2026-05-04 05:47 | 45.20015 | -69.21991 | 34767 ft | 464 kts | 102° |
| 2026-05-04 05:48 | 45.18601 | -69.11529 | 34759 ft | 464 kts | 102° |
| 2026-05-04 05:48 | 45.17583 | -69.04033 | 34763 ft | 465 kts | 102° |
| 2026-05-04 05:49 | 45.16350 | -68.95015 | 34759 ft | 465 kts | 102° |
| 2026-05-04 05:49 | 45.15119 | -68.86059 | 34760 ft | 465 kts | 102° |
| 2026-05-04 05:51 | 45.10102 | -68.50133 | 34765 ft | 465 kts | 102° |
| 2026-05-04 05:52 | 45.08832 | -68.41170 | 34766 ft | 465 kts | 102° |
| 2026-05-04 05:52 | 45.07546 | -68.32152 | 34758 ft | 465 kts | 103° |
| 2026-05-04 05:54 | 45.02376 | -67.96425 | 34741 ft | 465 kts | 103° |
| 2026-05-04 05:55 | 45.01056 | -67.87436 | 34733 ft | 465 kts | 103° |
| 2026-05-04 05:55 | 44.99740 | -67.78524 | 34731 ft | 465 kts | 103° |
| 2026-05-04 05:56 | 44.98413 | -67.69592 | 34721 ft | 465 kts | 103° |
| 2026-05-04 05:56 | 44.97074 | -67.60628 | 34715 ft | 465 kts | 103° |
| 2026-05-04 05:57 | 44.95740 | -67.51745 | 34715 ft | 465 kts | 103° |
| 2026-05-04 05:57 | 44.94391 | -67.42797 | 34698 ft | 465 kts | 103° |
| 2026-05-04 05:58 | 44.93043 | -67.33903 | 34701 ft | 465 kts | 103° |
| 2026-05-04 05:58 | 44.91681 | -67.24970 | 34696 ft | 466 kts | 103° |
| 2026-05-04 05:59 | 44.90351 | -67.15980 | 34685 ft | 466 kts | 98° |
| 2026-05-04 05:59 | 44.90258 | -67.06865 | 34667 ft | 468 kts | 91° |
| 2026-05-04 06:00 | 44.90228 | -66.97705 | 34684 ft | 468 kts | 91° |
| 2026-05-04 06:00 | 44.90208 | -66.88487 | 34674 ft | 468 kts | 91° |
| 2026-05-04 06:01 | 44.90183 | -66.79336 | 34660 ft | 469 kts | 91° |
| 2026-05-04 06:03 | 44.90006 | -66.42528 | 34646 ft | 472 kts | 92° |
| 2026-05-04 06:05 | 44.89756 | -66.10490 | 32192 ft | 460 kts | 91° |
| 2026-05-04 06:05 | 44.89672 | -66.01672 | 31362 ft | 439 kts | 92° |
| 2026-05-04 06:05 | 44.89629 | -65.97406 | 30899 ft | 431 kts | 92° |
| 2026-05-04 06:06 | 44.89585 | -65.93264 | 30408 ft | 425 kts | 92° |
| 2026-05-04 06:06 | 44.89540 | -65.89138 | 29829 ft | 421 kts | 91° |
| 2026-05-04 06:06 | 44.89494 | -65.85005 | 28907 ft | 423 kts | 91° |
| 2026-05-04 06:06 | 44.89446 | -65.80787 | 27980 ft | 425 kts | 90° |
| 2026-05-04 06:07 | 44.89396 | -65.76671 | 27369 ft | 420 kts | 90° |
| 2026-05-04 06:07 | 44.89344 | -65.72603 | 27028 ft | 408 kts | 90° |
| 2026-05-04 06:07 | 44.89295 | -65.68657 | 26662 ft | 399 kts | 90° |
| 2026-05-04 06:07 | 44.89244 | -65.64791 | 26257 ft | 391 kts | 90° |
| 2026-05-04 06:08 | 44.89194 | -65.60986 | 25857 ft | 384 kts | 89° |
| 2026-05-04 06:08 | 44.89145 | -65.57297 | 25485 ft | 377 kts | 88° |
| 2026-05-04 06:08 | 44.89094 | -65.53587 | 25114 ft | 370 kts | 89° |
| 2026-05-04 06:08 | 44.89042 | -65.49990 | 24716 ft | 364 kts | 88° |
| 2026-05-04 06:09 | 44.88988 | -65.46435 | 24319 ft | 360 kts | 89° |
| 2026-05-04 06:09 | 44.88935 | -65.42992 | 23995 ft | 353 kts | 89° |
| 2026-05-04 06:11 | 44.88537 | -65.18477 | 21352 ft | 356 kts | 89° |
| 2026-05-04 06:11 | 44.88476 | -65.14975 | 20990 ft | 356 kts | 88° |
| 2026-05-04 06:13 | 44.88027 | -64.90898 | 18491 ft | 349 kts | 87° |
| 2026-05-04 06:14 | 44.87607 | -64.70536 | 16258 ft | 340 kts | 86° |
| 2026-05-04 06:14 | 44.87534 | -64.67203 | 15869 ft | 338 kts | 86° |
| 2026-05-04 06:15 | 44.87462 | -64.63912 | 15516 ft | 336 kts | 86° |
| 2026-05-04 06:15 | 44.87391 | -64.60674 | 15178 ft | 333 kts | 86° |
| 2026-05-04 06:15 | 44.87317 | -64.57416 | 14831 ft | 331 kts | 86° |
| 2026-05-04 06:15 | 44.87243 | -64.54184 | 14522 ft | 328 kts | 86° |
| 2026-05-04 06:16 | 44.87169 | -64.50976 | 14396 ft | 328 kts | 86° |
| 2026-05-04 06:16 | 44.87094 | -64.47759 | 14317 ft | 328 kts | 86° |
| 2026-05-04 06:16 | 44.87018 | -64.44553 | 14083 ft | 327 kts | 86° |
| 2026-05-04 06:16 | 44.86942 | -64.41350 | 13740 ft | 328 kts | 86° |
| 2026-05-04 06:17 | 44.86865 | -64.38136 | 13355 ft | 328 kts | 86° |
| 2026-05-04 06:17 | 44.86786 | -64.34924 | 12917 ft | 327 kts | 86° |
| 2026-05-04 06:17 | 44.86707 | -64.31731 | 12560 ft | 325 kts | 86° |
| 2026-05-04 06:17 | 44.86628 | -64.28547 | 12207 ft | 323 kts | 86° |
| 2026-05-04 06:18 | 44.86549 | -64.25387 | 11870 ft | 322 kts | 86° |
| 2026-05-04 06:18 | 44.86469 | -64.22239 | 11536 ft | 320 kts | 86° |
| 2026-05-04 06:18 | 44.86565 | -64.19175 | 11157 ft | 311 kts | 71° |
| 2026-05-04 06:20 | 44.89773 | -63.98758 | 8901 ft | 301 kts | 69° |
| 2026-05-04 06:20 | 44.90218 | -63.95874 | 8555 ft | 301 kts | 69° |
| 2026-05-04 06:21 | 44.91984 | -63.84388 | 7235 ft | 296 kts | 69° |
| 2026-05-04 06:21 | 44.92418 | -63.81545 | 6956 ft | 296 kts | 69° |
| 2026-05-04 06:22 | 44.92846 | -63.78747 | 6597 ft | 296 kts | 69° |
| 2026-05-04 06:22 | 44.93279 | -63.75907 | 6270 ft | 295 kts | 69° |
| 2026-05-04 06:25 | 45.03585 | -63.50244 | 4399 ft | 199 kts | 22° |
| 2026-05-04 06:25 | 45.04713 | -63.49121 | 4313 ft | 198 kts | 21° |
| 2026-05-04 06:26 | 45.05770 | -63.47825 | 4122 ft | 214 kts | 42° |
| 2026-05-04 06:26 | 45.06284 | -63.45720 | 3768 ft | 244 kts | 79° |
| 2026-05-04 06:26 | 45.05832 | -63.43361 | 3506 ft | 255 kts | 121° |
| 2026-05-04 06:26 | 45.04757 | -63.41367 | 3500 ft | 258 kts | 127° |
| 2026-05-04 06:27 | 44.99090 | -63.40286 | 2914 ft | 199 kts | 230° |
| 2026-05-04 06:28 | 44.97972 | -63.41401 | 2750 ft | 194 kts | 231° |
| 2026-05-04 06:28 | 44.96901 | -63.42471 | 2499 ft | 182 kts | 231° |
| 2026-05-04 06:28 | 44.95924 | -63.43430 | 2247 ft | 158 kts | 232° |
| 2026-05-04 06:28 | 44.95103 | -63.44236 | 2078 ft | 133 kts | 234° |
| 2026-05-04 06:29 | 44.94379 | -63.44966 | 1922 ft | 127 kts | 236° |
| 2026-05-04 06:29 | 44.93657 | -63.45699 | 1737 ft | 126 kts | 234° |
| 2026-05-04 06:29 | 44.92951 | -63.46405 | 1542 ft | 126 kts | 234° |
| 2026-05-04 06:29 | 44.92233 | -63.47126 | 1361 ft | 127 kts | 230° |
| 2026-05-04 06:30 | 44.91495 | -63.47843 | 1159 ft | 129 kts | 227° |
| 2026-05-04 06:30 | 44.90765 | -63.48576 | 1019 ft | 129 kts | 228° |
| 2026-05-04 06:30 | 44.90012 | -63.49309 | 790 ft | 131 kts | 222° |
| 2026-05-04 06:30 | 44.89256 | -63.50054 | 625 ft | 133 kts | 223° |
| 2026-05-04 06:31 | 44.88529 | -63.50781 | 456 ft | 121 kts | 216° |
| 2026-05-04 06:31 | 44.87993 | -63.51314 | 463 ft | 60 kts | 216° |
| 2026-05-04 06:31 | 44.87665 | -63.51637 | 467 ft | 56 kts | 215° |
| 2026-05-04 06:31 | 44.87464 | -63.51889 | 464 ft | 28 kts | 243° |